Time;durP1;ratioP1;P1;durP2;ratioP2;P2;SDS_P1;SDS_P2;PMS_P1;PMS_P2;Temp;Humidity;BMP_temperature;BMP_pressure;BME280_temperature;BME280_humidity;BME280_pressure;Samples;Min_cycle;Max_cycle;Signal;HPM_P1;HPM_P2
2023/06/15 00:00:47;;;;;;;543.28;514.75;;;15.00;99.90;;;;;;5039183;28;20566;-78
2023/06/15 00:03:13;;;;;;;536.25;508.48;;;14.90;99.90;;;;;;5040649;28;20568;-78
2023/06/15 00:05:39;;;;;;;518.40;491.52;;;14.80;99.90;;;;;;5041274;28;20044;-78
2023/06/15 00:08:05;;;;;;;497.08;471.98;;;14.70;99.90;;;;;;5035132;28;20049;-78
2023/06/15 00:10:31;;;;;;;520.42;493.23;;;14.60;99.90;;;;;;5035351;28;20481;-78
2023/06/15 00:12:57;;;;;;;490.17;465.45;;;14.60;99.90;;;;;;5056492;28;20049;-78
2023/06/15 00:15:23;;;;;;;470.88;447.35;;;14.50;99.90;;;;;;5040672;28;20044;-78
2023/06/15 00:17:49;;;;;;;456.20;434.13;;;14.40;99.90;;;;;;5041597;28;20460;-78
2023/06/15 00:20:16;;;;;;;436.27;415.38;;;14.30;99.90;;;;;;5049368;28;20485;-78
2023/06/15 00:22:45;;;;;;;402.10;383.00;;;14.30;99.90;;;;;;5032256;28;20048;-78
2023/06/15 00:25:11;;;;;;;365.38;348.60;;;14.20;99.90;;;;;;5045015;28;20502;-78
2023/06/15 00:27:37;;;;;;;382.02;363.73;;;14.20;99.90;;;;;;5041258;28;20452;-78
2023/06/15 00:30:04;;;;;;;331.80;317.00;;;14.10;99.90;;;;;;5040283;28;20076;-77
2023/06/15 00:32:30;;;;;;;352.33;336.10;;;14.00;99.90;;;;;;5036432;28;20049;-77
2023/06/15 00:34:56;;;;;;;316.63;302.60;;;14.00;99.90;;;;;;5046836;28;20480;-77
2023/06/15 00:37:22;;;;;;;302.05;288.92;;;13.90;99.90;;;;;;5038184;28;20474;-78
2023/06/15 00:39:48;;;;;;;315.25;301.08;;;13.90;99.90;;;;;;5066399;28;20143;-77
2023/06/15 00:42:13;;;;;;;258.35;247.40;;;13.80;99.90;;;;;;5022233;28;20052;-78
2023/06/15 00:44:39;;;;;;;248.35;237.75;;;13.80;99.90;;;;;;5047266;28;20120;-77
2023/06/15 00:47:05;;;;;;;271.02;259.48;;;13.70;99.90;;;;;;5040901;28;20390;-78
2023/06/15 00:49:32;;;;;;;275.70;263.58;;;13.70;99.90;;;;;;5026200;28;20072;-78
2023/06/15 00:51:59;;;;;;;203.07;194.57;;;13.60;99.90;;;;;;5029143;28;20099;-78
2023/06/15 00:54:25;;;;;;;206.00;197.38;;;13.60;99.90;;;;;;5056582;28;20037;-78
2023/06/15 00:56:52;;;;;;;188.80;180.65;;;13.50;99.90;;;;;;5039757;28;20056;-78
2023/06/15 00:59:18;;;;;;;219.52;210.48;;;13.50;99.90;;;;;;5035242;28;20060;-78
2023/06/15 01:01:44;;;;;;;215.77;206.63;;;13.50;99.90;;;;;;5043096;28;20132;-78
2023/06/15 01:04:11;;;;;;;202.55;193.80;;;13.50;99.90;;;;;;5030452;28;20053;-77
2023/06/15 01:06:41;;;;;;;205.85;196.90;;;13.40;99.90;;;;;;5029455;28;20056;-77
2023/06/15 01:09:09;;;;;;;258.58;247.23;;;13.40;99.90;;;;;;5029417;28;20045;-78
2023/06/15 01:11:36;;;;;;;255.85;245.10;;;13.40;99.90;;;;;;5030642;28;20037;-78
2023/06/15 01:14:04;;;;;;;249.63;239.25;;;13.40;99.90;;;;;;5038604;28;20051;-77
2023/06/15 01:16:40;;;;;;;285.05;272.88;;;13.40;99.90;;;;;;5076533;28;20049;-77
2023/06/15 01:19:16;;;;;;;273.48;261.88;;;13.40;99.90;;;;;;5040581;28;20565;-77
2023/06/15 01:21:42;;;;;;;283.83;271.83;;;13.30;99.90;;;;;;5023725;28;20056;-77
2023/06/15 01:24:20;;;;;;;303.17;289.67;;;13.30;99.90;;;;;;5061218;28;20051;-77
2023/06/15 01:26:49;;;;;;;300.23;287.42;;;13.30;99.90;;;;;;5029116;28;20052;-77
2023/06/15 01:29:19;;;;;;;311.10;297.42;;;13.30;99.90;;;;;;5037963;28;20048;-77
2023/06/15 01:31:46;;;;;;;302.23;288.90;;;13.30;99.90;;;;;;5064311;28;20428;-77
2023/06/15 01:34:11;;;;;;;312.67;298.67;;;13.20;99.90;;;;;;5040297;28;20394;-77
2023/06/15 01:36:37;;;;;;;319.45;304.88;;;13.20;99.90;;;;;;5072975;28;20044;-77
2023/06/15 01:39:03;;;;;;;317.67;303.25;;;13.30;99.90;;;;;;5032794;28;20045;-77
2023/06/15 01:41:30;;;;;;;336.58;321.17;;;13.30;99.90;;;;;;5032162;28;20489;-77
2023/06/15 01:43:57;;;;;;;325.33;310.55;;;13.30;99.90;;;;;;5019836;28;20060;-77
2023/06/15 01:46:25;;;;;;;320.77;306.10;;;13.30;99.90;;;;;;5035304;28;20041;-77
2023/06/15 01:48:51;;;;;;;320.45;305.98;;;13.30;99.90;;;;;;5044699;28;20603;-77
2023/06/15 01:51:17;;;;;;;322.05;307.15;;;13.30;99.90;;;;;;5045083;28;20059;-77
2023/06/15 01:53:44;;;;;;;350.33;334.02;;;13.30;99.90;;;;;;5039807;28;20504;-77
2023/06/15 01:56:09;;;;;;;343.70;327.73;;;13.30;99.90;;;;;;5028291;28;20048;-77
2023/06/15 01:58:35;;;;;;;383.35;365.00;;;13.30;99.90;;;;;;5018833;28;20038;-77
2023/06/15 02:01:01;;;;;;;399.15;380.08;;;13.30;99.90;;;;;;5037269;28;20041;-77
2023/06/15 02:03:26;;;;;;;398.83;379.90;;;13.30;99.90;;;;;;5040086;28;20127;-77
2023/06/15 02:05:52;;;;;;;425.33;404.95;;;13.30;99.90;;;;;;5047235;28;20053;-77
2023/06/15 02:08:18;;;;;;;432.88;411.58;;;13.20;99.90;;;;;;5039709;28;20049;-77
2023/06/15 02:10:43;;;;;;;364.55;347.70;;;13.20;99.90;;;;;;5040827;28;20053;-77
2023/06/15 02:13:11;;;;;;;329.23;314.38;;;13.20;99.90;;;;;;5039241;28;20397;-77
2023/06/15 02:15:38;;;;;;;290.52;277.40;;;13.20;99.90;;;;;;5076893;28;20166;-77
2023/06/15 02:18:12;;;;;;;312.50;297.90;;;13.10;99.90;;;;;;5040949;28;20399;-77
2023/06/15 02:20:45;;;;;;;324.80;309.73;;;13.10;99.90;;;;;;5046259;28;20056;-77
2023/06/15 02:23:11;;;;;;;253.07;241.95;;;13.00;99.90;;;;;;5047024;28;20497;-77
2023/06/15 02:25:37;;;;;;;268.30;256.50;;;12.90;99.90;;;;;;5033617;28;20056;-77
2023/06/15 02:28:03;;;;;;;202.10;193.40;;;12.80;99.90;;;;;;5036599;28;20191;-77
2023/06/15 02:30:29;;;;;;;283.73;271.00;;;12.80;99.90;;;;;;5035847;28;20124;-77
2023/06/15 02:32:55;;;;;;;315.98;301.27;;;12.80;99.90;;;;;;5042838;28;20155;-77
2023/06/15 02:35:21;;;;;;;285.90;272.95;;;12.70;99.90;;;;;;5034054;28;20047;-77
2023/06/15 02:37:47;;;;;;;392.92;373.92;;;12.60;99.90;;;;;;5030957;28;20053;-77
2023/06/15 02:40:13;;;;;;;314.92;301.10;;;12.60;99.90;;;;;;5073278;28;20401;-77
2023/06/15 02:42:39;;;;;;;311.58;297.98;;;12.50;99.90;;;;;;5048878;28;20138;-77
2023/06/15 02:45:06;;;;;;;354.80;338.00;;;12.50;99.90;;;;;;5026617;28;20068;-77
2023/06/15 02:47:34;;;;;;;439.58;417.98;;;12.40;99.90;;;;;;5038839;28;20116;-78
2023/06/15 02:50:00;;;;;;;396.67;377.45;;;12.40;99.90;;;;;;5027280;28;20108;-77
2023/06/15 02:52:32;;;;;;;443.30;421.80;;;12.40;99.90;;;;;;5036002;28;20044;-77
2023/06/15 02:55:01;;;;;;;460.58;437.63;;;12.40;99.90;;;;;;5033614;28;20500;-77
2023/06/15 02:57:27;;;;;;;458.05;435.40;;;12.40;99.90;;;;;;5038805;28;20519;-77
2023/06/15 02:59:53;;;;;;;492.25;467.52;;;12.40;99.90;;;;;;5038696;28;20787;-77
2023/06/15 03:02:22;;;;;;;476.05;452.70;;;12.30;99.90;;;;;;5032675;28;20056;-77
2023/06/15 03:04:51;;;;;;;476.10;452.63;;;12.30;99.90;;;;;;5022711;28;20097;-77
2023/06/15 03:07:20;;;;;;;479.70;455.48;;;12.30;99.90;;;;;;5026927;28;20037;-77
2023/06/15 03:09:51;;;;;;;469.27;446.17;;;12.30;99.90;;;;;;5028277;28;20056;-77
2023/06/15 03:12:17;;;;;;;428.10;406.83;;;12.30;99.90;;;;;;5042508;28;20045;-77
2023/06/15 03:14:44;;;;;;;471.60;447.63;;;12.30;99.90;;;;;;5022824;28;20045;-77
2023/06/15 03:17:13;;;;;;;392.38;372.95;;;12.30;99.90;;;;;;5041201;28;20103;-77
2023/06/15 03:19:40;;;;;;;327.92;312.80;;;12.30;99.90;;;;;;5041647;28;20059;-77
2023/06/15 03:22:07;;;;;;;304.35;290.52;;;12.40;99.90;;;;;;5031621;28;20049;-77
2023/06/15 03:24:34;;;;;;;326.00;310.80;;;12.40;99.90;;;;;;5046219;28;20048;-77
2023/06/15 03:27:02;;;;;;;301.63;287.80;;;12.40;99.90;;;;;;5026434;28;20051;-77
2023/06/15 03:29:29;;;;;;;267.73;255.68;;;12.50;99.90;;;;;;5045837;28;20393;-77
2023/06/15 03:31:56;;;;;;;297.63;284.08;;;12.40;99.90;;;;;;5037189;28;20116;-77
2023/06/15 03:34:22;;;;;;;301.33;287.42;;;12.50;99.90;;;;;;5045509;28;20042;-76
2023/06/15 03:36:51;;;;;;;280.38;267.65;;;12.50;99.90;;;;;;5029935;28;20094;-77
2023/06/15 03:39:20;;;;;;;247.68;236.30;;;12.50;99.90;;;;;;5069327;28;20071;-77
2023/06/15 03:41:46;;;;;;;262.85;250.82;;;12.50;99.90;;;;;;5037380;28;20056;-77
2023/06/15 03:44:11;;;;;;;242.40;231.70;;;12.50;99.90;;;;;;5035681;28;20037;-77
2023/06/15 03:46:37;;;;;;;243.05;231.90;;;12.60;99.90;;;;;;5030733;28;20151;-77
2023/06/15 03:49:03;;;;;;;244.60;233.55;;;12.60;99.90;;;;;;5043710;28;20152;-77
2023/06/15 03:51:28;;;;;;;219.77;209.52;;;12.60;99.90;;;;;;5041145;28;20493;-77
2023/06/15 03:53:54;;;;;;;246.30;235.25;;;12.70;99.90;;;;;;5034116;28;20468;-77
2023/06/15 03:56:20;;;;;;;222.43;212.43;;;12.70;99.90;;;;;;5023598;28;20041;-77
2023/06/15 03:58:46;;;;;;;242.45;231.55;;;12.70;99.90;;;;;;5045075;28;20049;-77
2023/06/15 04:01:12;;;;;;;240.45;229.75;;;12.70;99.90;;;;;;5038634;28;20109;-77
2023/06/15 04:03:39;;;;;;;240.60;229.90;;;12.70;99.90;;;;;;5037426;28;20057;-77
2023/06/15 04:06:05;;;;;;;255.48;244.15;;;12.70;99.90;;;;;;5057135;28;20048;-77
2023/06/15 04:08:37;;;;;;;249.85;238.63;;;12.80;99.90;;;;;;5036900;28;20033;-77
2023/06/15 04:11:03;;;;;;;196.80;187.88;;;12.80;99.90;;;;;;5043508;28;20036;-76
2023/06/15 04:13:29;;;;;;;221.50;211.40;;;12.80;99.90;;;;;;5043179;28;20132;-76
2023/06/15 04:15:55;;;;;;;205.85;196.63;;;12.90;99.90;;;;;;5046939;28;20047;-76
2023/06/15 04:18:24;;;;;;;229.90;219.73;;;13.00;99.90;;;;;;5037633;28;20049;-77
2023/06/15 04:20:50;;;;;;;245.07;233.82;;;13.00;99.90;;;;;;5045496;28;20049;-77
2023/06/15 04:23:16;;;;;;;248.93;237.68;;;13.00;99.90;;;;;;5037828;28;20095;-77
2023/06/15 04:25:41;;;;;;;241.90;231.25;;;13.10;99.90;;;;;;5031902;28;20056;-77
2023/06/15 04:28:10;;;;;;;222.27;212.10;;;13.20;99.90;;;;;;5032693;28;20406;-77
2023/06/15 04:30:40;;;;;;;265.88;253.90;;;13.20;99.90;;;;;;5044907;28;20037;-77
2023/06/15 04:33:12;;;;;;;253.48;242.45;;;13.30;99.90;;;;;;5027069;28;20033;-77
2023/06/15 04:35:47;;;;;;;246.20;235.32;;;13.40;99.90;;;;;;5025499;28;20461;-77
2023/06/15 04:38:13;;;;;;;254.23;242.93;;;13.40;99.90;;;;;;5042317;28;20375;-77
2023/06/15 04:40:41;;;;;;;246.15;235.18;;;13.50;99.90;;;;;;5037222;28;20045;-77
2023/06/15 04:43:08;;;;;;;226.57;216.52;;;13.60;99.90;;;;;;5030562;28;20064;-77
2023/06/15 04:45:34;;;;;;;217.75;208.32;;;13.70;99.90;;;;;;5044635;28;20118;-77
2023/06/15 04:48:00;;;;;;;228.52;218.50;;;13.70;99.90;;;;;;5036583;28;20096;-77
2023/06/15 04:50:26;;;;;;;211.95;202.70;;;13.80;99.90;;;;;;5063943;28;20472;-77
2023/06/15 04:52:51;;;;;;;211.48;202.18;;;13.90;99.90;;;;;;5045785;28;20120;-77
2023/06/15 04:55:17;;;;;;;193.93;185.50;;;13.90;99.90;;;;;;5048505;28;20041;-78
2023/06/15 04:57:44;;;;;;;209.70;200.63;;;14.10;99.90;;;;;;5046987;28;20049;-77
2023/06/15 05:00:11;;;;;;;188.88;180.68;;;14.20;99.90;;;;;;5053928;28;20056;-77
2023/06/15 05:02:36;;;;;;;194.07;185.63;;;14.30;99.90;;;;;;5025018;28;20041;-77
2023/06/15 05:05:02;;;;;;;180.43;172.50;;;14.40;99.90;;;;;;5037198;28;20060;-78
2023/06/15 05:07:28;;;;;;;158.23;151.25;;;14.60;99.90;;;;;;5058646;28;20068;-77
2023/06/15 05:09:55;;;;;;;199.95;191.27;;;14.70;99.90;;;;;;5039657;28;20486;-78
2023/06/15 05:12:21;;;;;;;197.43;188.60;;;14.90;99.90;;;;;;5038736;28;20034;-77
2023/06/15 05:14:46;;;;;;;205.00;196.25;;;15.00;99.90;;;;;;5030107;28;20447;-77
2023/06/15 05:17:12;;;;;;;180.40;172.75;;;15.10;99.90;;;;;;5030570;28;20409;-78
2023/06/15 05:19:38;;;;;;;126.68;121.20;;;15.30;99.90;;;;;;5040383;28;20401;-78
2023/06/15 05:22:05;;;;;;;153.27;146.48;;;15.50;99.90;;;;;;5035856;28;20516;-78
2023/06/15 05:24:31;;;;;;;157.13;150.32;;;15.60;99.90;;;;;;5053372;28;20094;-78
2023/06/15 05:26:57;;;;;;;149.27;142.60;;;15.80;99.90;;;;;;5040901;28;20041;-78
2023/06/15 05:29:23;;;;;;;139.15;132.55;;;15.90;99.90;;;;;;5033515;28;20124;-78
2023/06/15 05:31:49;;;;;;;135.57;129.55;;;16.00;99.90;;;;;;5052011;28;20040;-78
2023/06/15 05:34:15;;;;;;;222.05;212.25;;;16.20;99.90;;;;;;5036615;28;20501;-78
2023/06/15 05:36:41;;;;;;;227.48;217.55;;;16.30;99.90;;;;;;5036303;28;20058;-78
2023/06/15 05:39:07;;;;;;;216.18;206.90;;;16.50;99.90;;;;;;5033029;28;20496;-78
2023/06/15 05:41:33;;;;;;;292.95;279.65;;;16.60;99.90;;;;;;5016407;28;20186;-78
2023/06/15 05:44:00;;;;;;;272.77;260.58;;;16.70;99.90;;;;;;5040464;28;20041;-78
2023/06/15 05:46:25;;;;;;;273.60;261.38;;;16.90;99.90;;;;;;5036567;28;20048;-78
2023/06/15 05:48:51;;;;;;;353.73;336.95;;;17.00;99.90;;;;;;5035595;28;20052;-79
2023/06/15 05:51:17;;;;;;;374.50;356.50;;;17.20;99.90;;;;;;5028925;28;20128;-78
2023/06/15 05:53:42;;;;;;;406.92;387.33;;;17.30;99.90;;;;;;5017608;28;20046;-78
2023/06/15 05:56:08;;;;;;;337.67;321.88;;;17.50;99.90;;;;;;5044837;28;20261;-79
2023/06/15 05:58:34;;;;;;;223.65;213.45;;;17.60;99.90;;;;;;5040106;28;20517;-78
2023/06/15 06:01:00;;;;;;;113.03;107.72;;;17.70;99.90;;;;;;5031501;28;20041;-78
2023/06/15 06:03:26;;;;;;;106.18;101.07;;;17.90;99.90;;;;;;5038388;28;20056;-78
2023/06/15 06:05:52;;;;;;;46.85;44.10;;;18.00;99.90;;;;;;5035147;28;20044;-78
2023/06/15 06:08:18;;;;;;;140.77;134.45;;;18.20;99.90;;;;;;5029936;28;20051;-78
2023/06/15 06:10:44;;;;;;;81.75;77.68;;;18.30;99.90;;;;;;5017882;28;20148;-78
2023/06/15 06:13:10;;;;;;;65.82;62.50;;;18.50;99.90;;;;;;5039902;28;20493;-78
2023/06/15 06:15:36;;;;;;;96.72;92.13;;;18.60;99.90;;;;;;5035840;28;20076;-79
2023/06/15 06:18:02;;;;;;;96.35;91.72;;;18.80;99.90;;;;;;5030835;28;20041;-79
2023/06/15 06:20:28;;;;;;;78.55;74.80;;;19.30;99.90;;;;;;5027929;28;20045;-79
2023/06/15 06:22:53;;;;;;;74.20;70.30;;;20.40;99.90;;;;;;5032378;28;20493;-79
2023/06/15 06:25:19;;;;;;;101.63;96.50;;;21.80;99.90;;;;;;5021804;28;20048;-79
2023/06/15 06:27:45;;;;;;;79.25;75.53;;;23.10;99.90;;;;;;5061697;28;20048;-80
2023/06/15 06:30:11;;;;;;;45.58;43.25;;;23.80;99.90;;;;;;5029428;28;20532;-79
2023/06/15 06:32:37;;;;;;;126.00;120.18;;;24.40;99.90;;;;;;5029410;28;20475;-79
2023/06/15 06:35:03;;;;;;;245.85;233.68;;;25.10;99.90;;;;;;5044445;28;20044;-79
2023/06/15 06:37:29;;;;;;;177.43;169.63;;;25.90;98.30;;;;;;5039536;28;20049;-80
2023/06/15 06:39:55;;;;;;;40.67;38.53;;;26.40;94.60;;;;;;5042762;28;20118;-80
2023/06/15 06:42:20;;;;;;;74.13;70.38;;;26.60;88.50;;;;;;5023032;28;20053;-80
2023/06/15 06:44:46;;;;;;;50.40;47.88;;;26.60;85.70;;;;;;5045877;28;20048;-80
2023/06/15 06:47:12;;;;;;;44.30;42.05;;;26.90;86.40;;;;;;5037160;28;20049;-80
2023/06/15 06:49:37;;;;;;;25.58;24.17;;;27.40;83.50;;;;;;5035717;28;20052;-81
2023/06/15 06:52:04;;;;;;;118.53;112.97;;;27.60;77.00;;;;;;5019923;28;20045;-81
2023/06/15 06:54:30;;;;;;;203.85;194.80;;;27.80;72.90;;;;;;5036519;28;20405;-79
2023/06/15 06:56:56;;;;;;;429.20;407.58;;;28.00;71.40;;;;;;5041216;28;20127;-81
2023/06/15 06:59:22;;;;;;;436.95;414.90;;;27.90;67.30;;;;;;5039292;28;20682;-81
2023/06/15 07:01:47;;;;;;;297.73;284.05;;;27.90;66.40;;;;;;5043540;28;20511;-80
2023/06/15 07:04:13;;;;;;;357.85;339.15;;;28.10;67.70;;;;;;5032985;28;20096;-82
2023/06/15 07:06:39;;;;;;;424.52;402.35;;;28.60;66.80;;;;;;5028544;28;20128;-81
2023/06/15 07:09:05;;;;;;;55.30;52.67;;;28.80;65.70;;;;;;5044101;28;20377;-80
2023/06/15 07:11:30;;;;;;;516.50;488.55;;;29.00;66.20;;;;;;5044275;28;20098;-80
2023/06/15 07:13:57;;;;;;;548.10;518.17;;;29.40;65.00;;;;;;5044962;28;20052;-80
2023/06/15 07:16:23;;;;;;;444.58;421.55;;;29.70;63.00;;;;;;5029167;28;20072;-80
2023/06/15 07:18:48;;;;;;;472.95;447.33;;;29.90;62.80;;;;;;5045632;28;20044;-80
2023/06/15 07:21:14;;;;;;;492.95;466.85;;;30.00;62.30;;;;;;5040045;28;20048;-81
2023/06/15 07:23:40;;;;;;;329.58;313.88;;;30.00;60.80;;;;;;5044873;28;20037;-81
2023/06/15 07:26:05;;;;;;;502.55;475.52;;;29.90;59.50;;;;;;5040846;28;20037;-81
2023/06/15 07:28:31;;;;;;;438.83;416.10;;;29.90;60.80;;;;;;5036300;28;20041;-81
2023/06/15 07:30:57;;;;;;;349.02;330.90;;;30.00;59.50;;;;;;5046095;28;20076;-81
2023/06/15 07:33:22;;;;;;;310.30;295.10;;;30.00;58.40;;;;;;5028985;28;20048;-81
2023/06/15 07:35:48;;;;;;;40.35;38.25;;;29.90;57.40;;;;;;5041162;28;20049;-80
2023/06/15 07:38:14;;;;;;;30.52;28.60;;;29.70;56.70;;;;;;5036515;28;20052;-80
2023/06/15 07:40:40;;;;;;;19.90;18.58;;;29.70;55.00;;;;;;5032817;28;20041;-81
2023/06/15 07:43:06;;;;;;;149.82;143.32;;;29.70;54.80;;;;;;5021388;28;20048;-81
2023/06/15 07:45:31;;;;;;;49.47;47.05;;;29.80;55.10;;;;;;5022939;28;20041;-81
2023/06/15 07:47:57;;;;;;;20.42;18.95;;;29.90;55.00;;;;;;5032130;28;20041;-82
2023/06/15 07:50:23;;;;;;;10.93;9.70;;;30.10;54.00;;;;;;5021069;28;20557;-81
2023/06/15 07:52:51;;;;;;;169.63;162.02;;;30.00;53.10;;;;;;5019786;28;20041;-81
2023/06/15 07:55:17;;;;;;;148.88;142.43;;;30.10;54.50;;;;;;5023378;28;20041;-82
2023/06/15 07:57:43;;;;;;;223.10;212.60;;;30.50;54.80;;;;;;5040990;28;20051;-81
2023/06/15 08:00:10;;;;;;;195.60;186.15;;;30.40;54.50;;;;;;5041855;28;20053;-83
2023/06/15 08:02:35;;;;;;;11.45;10.38;;;30.40;54.40;;;;;;5031706;28;20088;-82
2023/06/15 08:05:01;;;;;;;125.35;119.53;;;30.00;51.30;;;;;;5038801;28;20088;-81
2023/06/15 08:07:28;;;;;;;91.97;87.78;;;29.70;53.60;;;;;;5045028;28;20049;-82
2023/06/15 08:09:54;;;;;;;37.65;35.72;;;30.00;54.60;;;;;;5043932;28;20508;-83
2023/06/15 08:12:21;;;;;;;10.50;9.68;;;29.90;52.40;;;;;;5027353;28;20162;-83
2023/06/15 08:14:47;;;;;;;10.88;9.98;;;29.50;51.30;;;;;;5024624;28;20056;-82
2023/06/15 08:17:13;;;;;;;32.88;31.10;;;29.20;51.20;;;;;;5030847;28;20046;-82
2023/06/15 08:19:38;;;;;;;8.98;8.23;;;29.00;51.80;;;;;;5028413;28;20141;-81
2023/06/15 08:22:04;;;;;;;12.50;11.45;;;28.90;50.60;;;;;;5030114;28;20052;-81
2023/06/15 08:24:31;;;;;;;19.90;18.60;;;28.80;51.20;;;;;;5025880;28;20049;-80
2023/06/15 08:26:58;;;;;;;22.92;21.17;;;28.70;51.90;;;;;;5023323;28;20452;-80
2023/06/15 08:29:24;;;;;;;19.15;17.90;;;28.80;50.90;;;;;;5045951;28;20075;-81
2023/06/15 08:31:50;;;;;;;89.05;84.25;;;28.90;51.40;;;;;;5022066;28;20506;-81
2023/06/15 08:34:16;;;;;;;32.63;30.95;;;29.10;52.50;;;;;;5037824;28;20049;-83
2023/06/15 08:36:41;;;;;;;52.15;49.58;;;29.10;51.70;;;;;;5052086;28;20854;-80
2023/06/15 08:39:10;;;;;;;13.25;12.25;;;29.10;51.80;;;;;;5032712;28;20041;-80
2023/06/15 08:41:40;;;;;;;21.95;20.42;;;29.00;50.20;;;;;;5029480;28;20160;-81
2023/06/15 08:44:06;;;;;;;49.60;47.08;;;28.90;50.80;;;;;;5033451;28;20056;-81
2023/06/15 08:46:32;;;;;;;14.68;13.38;;;28.80;51.60;;;;;;5030425;28;20077;-82
2023/06/15 08:48:59;;;;;;;131.73;125.68;;;28.80;51.10;;;;;;5031835;28;20460;-80
2023/06/15 08:51:25;;;;;;;21.17;19.75;;;28.70;52.40;;;;;;5011587;28;20489;-81
2023/06/15 08:53:54;;;;;;;63.58;60.50;;;28.60;50.40;;;;;;5027218;28;20087;-82
2023/06/15 08:56:20;;;;;;;60.25;57.42;;;28.60;51.40;;;;;;5016404;28;20116;-79
2023/06/15 08:58:49;;;;;;;42.58;40.42;;;28.60;51.50;;;;;;5037696;28;20120;-81
2023/06/15 09:01:22;;;;;;;19.02;17.83;;;28.50;52.00;;;;;;5028340;28;20041;-79
2023/06/15 09:03:53;;;;;;;15.30;14.20;;;28.40;51.30;;;;;;5073841;28;20398;-81
2023/06/15 09:06:21;;;;;;;73.65;70.22;;;28.20;50.40;;;;;;5045607;28;20037;-80
2023/06/15 09:08:48;;;;;;;83.70;79.90;;;28.10;52.00;;;;;;5021435;28;20117;-84
2023/06/15 09:11:15;;;;;;;21.00;19.52;;;28.20;52.00;;;;;;5039889;28;20041;-81
2023/06/15 09:13:41;;;;;;;12.10;11.10;;;28.20;49.80;;;;;;5036012;28;20049;-80
2023/06/15 09:16:08;;;;;;;21.23;20.00;;;27.90;50.50;;;;;;5042127;28;20051;-80
2023/06/15 09:18:47;;;;;;;69.10;65.90;;;27.90;50.80;;;;;;5039864;28;20401;-79
2023/06/15 09:21:15;;;;;;;12.70;11.75;;;27.90;52.90;;;;;;5043685;28;20401;-78
2023/06/15 09:23:46;;;;;;;82.88;78.75;;;28.10;51.70;;;;;;5045161;28;20404;-79
2023/06/15 09:26:25;;;;;;;19.88;18.67;;;28.10;51.60;;;;;;5036034;28;20447;-80
2023/06/15 09:28:56;;;;;;;22.65;21.17;;;28.00;53.00;;;;;;5039056;28;20086;-80
2023/06/15 09:31:32;;;;;;;44.10;41.65;;;27.90;50.90;;;;;;5036183;28;20045;-81
2023/06/15 09:34:04;;;;;;;17.42;16.13;;;27.80;51.80;;;;;;5038238;28;20115;-79
2023/06/15 09:36:40;;;;;;;19.60;18.23;;;28.00;51.30;;;;;;5064786;28;20068;-81
2023/06/15 09:39:09;;;;;;;13.25;11.82;;;27.90;50.20;;;;;;5050469;28;20044;-80
2023/06/15 09:41:36;;;;;;;24.10;22.60;;;27.90;50.40;;;;;;5046330;28;20493;-81
2023/06/15 09:44:05;;;;;;;38.35;36.38;;;28.00;49.90;;;;;;5043069;28;20041;-79
2023/06/15 09:46:31;;;;;;;11.15;10.35;;;28.00;50.90;;;;;;5043435;28;20090;-81
2023/06/15 09:48:57;;;;;;;374.42;354.52;;;28.10;50.60;;;;;;5048695;28;20398;-80
2023/06/15 09:51:27;;;;;;;29.67;28.08;;;28.20;52.30;;;;;;5072801;28;20040;-79
2023/06/15 09:53:54;;;;;;;14.70;13.65;;;28.20;49.30;;;;;;5046354;28;20128;-81
2023/06/15 09:56:21;;;;;;;25.08;23.48;;;28.10;50.40;;;;;;5046558;28;20485;-80
2023/06/15 09:58:48;;;;;;;41.28;38.85;;;28.00;50.90;;;;;;5031150;28;20041;-80
2023/06/15 10:01:18;;;;;;;17.15;15.85;;;28.20;51.50;;;;;;5045510;28;20143;-79
2023/06/15 10:03:49;;;;;;;15.90;14.75;;;28.20;50.10;;;;;;5020997;28;20430;-80
2023/06/15 10:06:17;;;;;;;20.70;19.30;;;28.10;50.60;;;;;;5029281;28;20049;-79
2023/06/15 10:08:45;;;;;;;17.58;16.25;;;28.10;49.60;;;;;;5068875;28;20103;-81
2023/06/15 10:11:12;;;;;;;31.10;29.35;;;28.10;49.30;;;;;;5045090;28;20145;-82
2023/06/15 10:13:45;;;;;;;50.50;47.85;;;28.00;48.50;;;;;;5040158;28;20037;-82
2023/06/15 10:16:15;;;;;;;35.65;33.67;;;28.00;50.90;;;;;;5027187;28;20391;-80
2023/06/15 10:18:42;;;;;;;30.85;29.13;;;28.00;50.30;;;;;;5030938;28;20049;-84
2023/06/15 10:21:14;;;;;;;27.90;26.10;;;28.00;50.40;;;;;;5032966;28;20119;-82
2023/06/15 10:23:41;;;;;;;20.65;19.33;;;27.90;49.80;;;;;;5066701;28;21667;-80
2023/06/15 10:26:11;;;;;;;25.67;24.13;;;27.80;49.80;;;;;;5041781;28;20059;-79
2023/06/15 10:29:06;;;;;;;63.53;60.35;;;27.80;49.70;;;;;;5036390;28;20036;-79
2023/06/15 10:31:39;;;;;;;35.45;33.65;;;27.90;53.00;;;;;;5034884;28;20495;-79
2023/06/15 10:34:13;;;;;;;21.65;20.30;;;28.10;49.80;;;;;;5014561;28;20120;-79
2023/06/15 10:37:07;;;;;;;22.35;20.58;;;28.10;49.40;;;;;;5040749;28;20122;-78
2023/06/15 10:39:36;;;;;;;19.40;18.10;;;28.00;50.10;;;;;;5052196;28;20041;-82
2023/06/15 10:42:11;;;;;;;27.60;25.92;;;28.10;51.30;;;;;;5046657;28;20536;-80
2023/06/15 10:44:37;;;;;;;25.60;24.13;;;28.10;49.90;;;;;;5061145;28;20043;-80
2023/06/15 10:47:12;;;;;;;48.83;46.30;;;28.20;49.80;;;;;;5041074;28;20132;-78
2023/06/15 10:49:52;;;;;;;45.50;43.30;;;28.00;48.70;;;;;;5037759;28;20067;-79
2023/06/15 10:52:18;;;;;;;32.50;30.77;;;27.80;48.90;;;;;;5055548;28;20037;-79
2023/06/15 10:54:44;;;;;;;25.60;24.20;;;27.70;49.60;;;;;;5046083;28;20041;-78
2023/06/15 10:57:15;;;;;;;35.10;33.17;;;27.60;49.70;;;;;;5042335;28;20049;-79
2023/06/15 10:59:49;;;;;;;20.10;18.90;;;27.40;49.00;;;;;;5041061;28;20049;-77
2023/06/15 11:02:27;;;;;;;32.78;31.08;;;27.40;49.30;;;;;;5053945;28;20070;-78
2023/06/15 11:05:03;;;;;;;37.55;35.63;;;27.50;48.70;;;;;;5023048;28;20140;-78
2023/06/15 11:07:37;;;;;;;54.55;51.80;;;27.60;49.30;;;;;;5021811;28;20049;-81
2023/06/15 11:10:13;;;;;;;;;;;27.70;49.60;;;;;;5046963;28;20055;-75
2023/06/15 11:12:41;;;;;;;35.42;33.33;;;27.80;48.90;;;;;;5066171;28;19933;-77
2023/06/15 11:15:08;;;;;;;35.22;33.53;;;28.00;48.20;;;;;;5067819;28;20037;-78
2023/06/15 11:17:54;;;;;;;26.17;24.63;;;28.00;47.80;;;;;;5040975;28;20048;-76
2023/06/15 11:20:39;;;;;;;41.58;39.30;;;28.00;49.20;;;;;;5046576;28;20052;-75
2023/06/15 11:23:10;;;;;;;25.52;23.85;;;28.10;49.10;;;;;;5035842;28;20053;-77
2023/06/15 11:25:37;;;;;;;34.67;32.67;;;28.20;48.10;;;;;;5072605;28;20037;-77
2023/06/15 11:28:03;;;;;;;43.20;22.38;;;28.30;47.20;;;;;;5039375;28;20085;-75
2023/06/15 11:30:29;;;;;;;30.20;28.55;;;28.40;48.00;;;;;;5036448;28;20084;-77
2023/06/15 11:32:55;;;;;;;34.85;33.10;;;28.50;48.00;;;;;;5030722;28;20132;-77
2023/06/15 11:35:21;;;;;;;20.98;19.63;;;28.70;47.50;;;;;;5041121;28;20052;-78
2023/06/15 11:37:47;;;;;;;18.40;17.30;;;28.60;45.90;;;;;;5040987;28;20134;-78
2023/06/15 11:40:16;;;;;;;28.23;26.75;;;28.70;48.30;;;;;;5032326;28;20390;-76
2023/06/15 11:42:42;;;;;;;29.23;27.52;;;28.80;45.40;;;;;;5042588;28;20093;-78
2023/06/15 11:45:18;;;;;;;33.03;30.83;;;28.80;46.20;;;;;;5024911;28;20102;-78
2023/06/15 11:47:45;;;;;;;13.00;11.90;;;28.90;46.30;;;;;;5025943;28;20048;-76
2023/06/15 11:50:15;;;;;;;25.63;24.17;;;29.00;44.70;;;;;;5038576;28;20091;-78
2023/06/15 11:52:45;;;;;;;13.77;12.70;;;29.00;45.40;;;;;;5028344;28;20053;-79
2023/06/15 11:55:11;;;;;;;13.15;12.15;;;29.00;45.20;;;;;;5027881;28;20037;-78
2023/06/15 11:57:38;;;;;;;19.75;18.45;;;29.00;44.10;;;;;;5024536;28;20489;-76
2023/06/15 12:00:07;;;;;;;18.77;17.67;;;29.00;46.00;;;;;;5035345;28;20053;-79
2023/06/15 12:02:34;;;;;;;20.50;19.30;;;29.10;45.10;;;;;;5039762;28;20045;-77
2023/06/15 12:05:02;;;;;;;14.60;13.50;;;29.10;44.60;;;;;;5046208;28;20535;-78
2023/06/15 12:07:32;;;;;;;14.60;13.60;;;29.00;44.50;;;;;;5048946;28;20045;-78
2023/06/15 12:09:59;;;;;;;18.60;17.50;;;29.00;44.60;;;;;;5048762;28;20069;-77
2023/06/15 12:12:29;;;;;;;17.05;15.85;;;29.20;44.90;;;;;;5035546;28;20037;-78
2023/06/15 12:14:54;;;;;;;19.10;18.00;;;29.20;44.90;;;;;;5031010;28;20091;-77
2023/06/15 12:17:28;;;;;;;15.75;14.73;;;29.20;45.00;;;;;;5045995;28;20041;-77